sensor_id;sensor_type;location;lat;lon;timestamp;temperature;humidity
32502;DHT22;18952;52.516;13.460;2022-09-28T00:00:16;8.60;99.90
32502;DHT22;18952;52.516;13.460;2022-09-28T00:02:43;8.60;99.90
32502;DHT22;18952;52.516;13.460;2022-09-28T00:05:10;8.60;99.90
32502;DHT22;18952;52.516;13.460;2022-09-28T00:07:36;8.60;99.90
32502;DHT22;18952;52.516;13.460;2022-09-28T00:10:03;8.70;99.90
32502;DHT22;18952;52.516;13.460;2022-09-28T00:12:30;8.70;99.90
32502;DHT22;18952;52.516;13.460;2022-09-28T00:14:57;8.70;99.90
32502;DHT22;18952;52.516;13.460;2022-09-28T00:17:24;8.70;99.90
32502;DHT22;18952;52.516;13.460;2022-09-28T00:19:50;8.70;99.90
32502;DHT22;18952;52.516;13.460;2022-09-28T00:22:17;8.80;99.90
32502;DHT22;18952;52.516;13.460;2022-09-28T00:24:44;8.80;99.90
32502;DHT22;18952;52.516;13.460;2022-09-28T00:27:10;8.80;99.90
32502;DHT22;18952;52.516;13.460;2022-09-28T00:29:37;8.80;99.90
32502;DHT22;18952;52.516;13.460;2022-09-28T00:32:08;8.80;99.90
32502;DHT22;18952;52.516;13.460;2022-09-28T00:34:38;8.80;99.90
32502;DHT22;18952;52.516;13.460;2022-09-28T00:37:05;8.80;99.90
32502;DHT22;18952;52.516;13.460;2022-09-28T00:39:32;8.80;99.90
32502;DHT22;18952;52.516;13.460;2022-09-28T00:41:59;8.80;99.90
32502;DHT22;18952;52.516;13.460;2022-09-28T00:49:29;8.80;99.90
32502;DHT22;18952;52.516;13.460;2022-09-28T00:51:57;8.80;99.90
32502;DHT22;18952;52.516;13.460;2022-09-28T00:54:24;8.70;99.90
32502;DHT22;18952;52.516;13.460;2022-09-28T00:56:51;8.70;99.90
32502;DHT22;18952;52.516;13.460;2022-09-28T00:59:18;8.70;99.90
32502;DHT22;18952;52.516;13.460;2022-09-28T01:01:44;8.70;99.90
32502;DHT22;18952;52.516;13.460;2022-09-28T01:04:11;8.70;99.90
32502;DHT22;18952;52.516;13.460;2022-09-28T01:06:38;8.70;99.90
32502;DHT22;18952;52.516;13.460;2022-09-28T01:09:07;8.70;99.90
32502;DHT22;18952;52.516;13.460;2022-09-28T01:11:37;8.70;99.90
32502;DHT22;18952;52.516;13.460;2022-09-28T01:14:07;8.70;99.90
32502;DHT22;18952;52.516;13.460;2022-09-28T01:16:45;8.70;99.90
32502;DHT22;18952;52.516;13.460;2022-09-28T01:27:54;8.70;99.90
32502;DHT22;18952;52.516;13.460;2022-09-28T01:30:22;8.80;99.90
32502;DHT22;18952;52.516;13.460;2022-09-28T01:40:22;8.90;99.90
32502;DHT22;18952;52.516;13.460;2022-09-28T01:42:54;8.80;99.90
32502;DHT22;18952;52.516;13.460;2022-09-28T01:45:35;8.80;99.90
32502;DHT22;18952;52.516;13.460;2022-09-28T01:48:06;8.80;99.90
32502;DHT22;18952;52.516;13.460;2022-09-28T01:50:39;8.80;99.90
32502;DHT22;18952;52.516;13.460;2022-09-28T01:53:10;8.80;99.90
32502;DHT22;18952;52.516;13.460;2022-09-28T01:55:43;8.80;99.90
32502;DHT22;18952;52.516;13.460;2022-09-28T02:01:01;8.80;99.90
32502;DHT22;18952;52.516;13.460;2022-09-28T02:03:33;8.80;99.90
32502;DHT22;18952;52.516;13.460;2022-09-28T02:06:06;8.80;99.90
32502;DHT22;18952;52.516;13.460;2022-09-28T02:08:40;8.80;99.90
32502;DHT22;18952;52.516;13.460;2022-09-28T02:11:13;8.80;99.90
32502;DHT22;18952;52.516;13.460;2022-09-28T02:19:10;8.80;99.90
32502;DHT22;18952;52.516;13.460;2022-09-28T02:24:35;8.80;99.90
32502;DHT22;18952;52.516;13.460;2022-09-28T02:27:22;8.80;99.90
32502;DHT22;18952;52.516;13.460;2022-09-28T02:29:51;8.80;99.90
32502;DHT22;18952;52.516;13.460;2022-09-28T02:32:19;8.80;99.90
32502;DHT22;18952;52.516;13.460;2022-09-28T02:34:46;8.70;99.90
32502;DHT22;18952;52.516;13.460;2022-09-28T02:37:12;8.70;99.90
32502;DHT22;18952;52.516;13.460;2022-09-28T02:39:39;8.60;99.90
32502;DHT22;18952;52.516;13.460;2022-09-28T02:50:26;8.60;99.90
32502;DHT22;18952;52.516;13.460;2022-09-28T02:53:41;8.60;99.90
32502;DHT22;18952;52.516;13.460;2022-09-28T03:04:16;8.50;99.90
32502;DHT22;18952;52.516;13.460;2022-09-28T03:07:16;8.50;99.90
32502;DHT22;18952;52.516;13.460;2022-09-28T03:09:49;8.50;99.90
32502;DHT22;18952;52.516;13.460;2022-09-28T03:12:19;8.40;99.90
32502;DHT22;18952;52.516;13.460;2022-09-28T03:15:08;8.50;99.90
32502;DHT22;18952;52.516;13.460;2022-09-28T03:17:35;8.50;99.90
32502;DHT22;18952;52.516;13.460;2022-09-28T03:20:03;8.40;99.90
32502;DHT22;18952;52.516;13.460;2022-09-28T03:22:30;8.50;99.90
32502;DHT22;18952;52.516;13.460;2022-09-28T03:24:57;8.50;99.90
32502;DHT22;18952;52.516;13.460;2022-09-28T03:27:23;8.50;99.90
32502;DHT22;18952;52.516;13.460;2022-09-28T03:29:50;8.60;99.90
32502;DHT22;18952;52.516;13.460;2022-09-28T03:32:17;8.50;99.90
32502;DHT22;18952;52.516;13.460;2022-09-28T03:34:43;8.50;99.90
32502;DHT22;18952;52.516;13.460;2022-09-28T03:37:10;8.50;99.90
32502;DHT22;18952;52.516;13.460;2022-09-28T03:39:37;8.50;99.90
32502;DHT22;18952;52.516;13.460;2022-09-28T03:42:03;8.40;99.90
32502;DHT22;18952;52.516;13.460;2022-09-28T03:44:30;8.40;99.90
32502;DHT22;18952;52.516;13.460;2022-09-28T03:46:57;8.40;99.90
32502;DHT22;18952;52.516;13.460;2022-09-28T03:49:23;8.40;99.90
32502;DHT22;18952;52.516;13.460;2022-09-28T03:51:50;8.30;99.90
32502;DHT22;18952;52.516;13.460;2022-09-28T03:54:17;8.30;99.90
32502;DHT22;18952;52.516;13.460;2022-09-28T03:56:43;8.30;99.90
32502;DHT22;18952;52.516;13.460;2022-09-28T03:59:10;8.30;99.90
32502;DHT22;18952;52.516;13.460;2022-09-28T04:01:37;8.30;99.90
32502;DHT22;18952;52.516;13.460;2022-09-28T04:04:04;8.20;99.90
32502;DHT22;18952;52.516;13.460;2022-09-28T04:06:30;8.20;99.90
32502;DHT22;18952;52.516;13.460;2022-09-28T04:08:57;8.20;99.90
32502;DHT22;18952;52.516;13.460;2022-09-28T04:11:24;8.20;99.90
32502;DHT22;18952;52.516;13.460;2022-09-28T04:13:50;8.20;99.90
32502;DHT22;18952;52.516;13.460;2022-09-28T04:16:17;8.20;99.90
32502;DHT22;18952;52.516;13.460;2022-09-28T04:18:44;8.10;99.90
32502;DHT22;18952;52.516;13.460;2022-09-28T04:21:11;8.10;99.90
32502;DHT22;18952;52.516;13.460;2022-09-28T04:23:39;8.10;99.90
32502;DHT22;18952;52.516;13.460;2022-09-28T04:26:12;8.10;99.90
32502;DHT22;18952;52.516;13.460;2022-09-28T04:28:39;8.10;99.90
32502;DHT22;18952;52.516;13.460;2022-09-28T04:31:10;8.00;99.90
32502;DHT22;18952;52.516;13.460;2022-09-28T04:33:37;8.00;99.90
32502;DHT22;18952;52.516;13.460;2022-09-28T04:36:04;8.00;99.90
32502;DHT22;18952;52.516;13.460;2022-09-28T04:38:31;8.00;99.90
32502;DHT22;18952;52.516;13.460;2022-09-28T04:41:18;8.00;99.90
32502;DHT22;18952;52.516;13.460;2022-09-28T04:43:48;8.00;99.90
32502;DHT22;18952;52.516;13.460;2022-09-28T04:46:15;8.00;99.90
32502;DHT22;18952;52.516;13.460;2022-09-28T04:48:42;8.00;99.90
32502;DHT22;18952;52.516;13.460;2022-09-28T04:51:09;8.00;99.90
32502;DHT22;18952;52.516;13.460;2022-09-28T04:53:36;8.00;99.90
32502;DHT22;18952;52.516;13.460;2022-09-28T04:56:05;8.10;99.90
32502;DHT22;18952;52.516;13.460;2022-09-28T04:58:34;8.10;99.90
32502;DHT22;18952;52.516;13.460;2022-09-28T05:01:03;8.20;99.90
32502;DHT22;18952;52.516;13.460;2022-09-28T05:03:30;8.10;99.90
32502;DHT22;18952;52.516;13.460;2022-09-28T05:05:57;8.20;99.90
32502;DHT22;18952;52.516;13.460;2022-09-28T05:08:25;8.10;99.90
32502;DHT22;18952;52.516;13.460;2022-09-28T05:11:00;8.20;99.90
32502;DHT22;18952;52.516;13.460;2022-09-28T05:13:29;8.30;99.90
32502;DHT22;18952;52.516;13.460;2022-09-28T05:15:57;8.30;99.90
32502;DHT22;18952;52.516;13.460;2022-09-28T05:18:30;8.30;99.90
32502;DHT22;18952;52.516;13.460;2022-09-28T05:20:57;8.30;99.90
32502;DHT22;18952;52.516;13.460;2022-09-28T05:23:24;8.30;99.90
32502;DHT22;18952;52.516;13.460;2022-09-28T05:25:50;8.30;99.90
32502;DHT22;18952;52.516;13.460;2022-09-28T05:28:26;8.20;99.90
32502;DHT22;18952;52.516;13.460;2022-09-28T05:30:58;8.30;99.90
32502;DHT22;18952;52.516;13.460;2022-09-28T05:33:25;8.30;99.90
32502;DHT22;18952;52.516;13.460;2022-09-28T05:35:53;8.20;99.90
32502;DHT22;18952;52.516;13.460;2022-09-28T05:38:26;8.20;99.90
32502;DHT22;18952;52.516;13.460;2022-09-28T05:40:53;8.20;99.90
32502;DHT22;18952;52.516;13.460;2022-09-28T05:43:20;8.20;99.90
32502;DHT22;18952;52.516;13.460;2022-09-28T05:45:46;8.20;99.90
32502;DHT22;18952;52.516;13.460;2022-09-28T05:48:19;8.20;99.90
32502;DHT22;18952;52.516;13.460;2022-09-28T05:50:52;8.20;99.90
32502;DHT22;18952;52.516;13.460;2022-09-28T05:53:19;8.20;99.90
32502;DHT22;18952;52.516;13.460;2022-09-28T05:55:46;8.20;99.90
32502;DHT22;18952;52.516;13.460;2022-09-28T05:58:13;8.20;99.90
32502;DHT22;18952;52.516;13.460;2022-09-28T06:00:40;8.30;99.90
32502;DHT22;18952;52.516;13.460;2022-09-28T06:03:11;8.40;99.90
32502;DHT22;18952;52.516;13.460;2022-09-28T06:05:38;8.40;99.90
32502;DHT22;18952;52.516;13.460;2022-09-28T06:08:06;8.50;99.90
32502;DHT22;18952;52.516;13.460;2022-09-28T06:10:33;8.50;99.90
32502;DHT22;18952;52.516;13.460;2022-09-28T06:13:00;8.50;99.90
32502;DHT22;18952;52.516;13.460;2022-09-28T06:15:29;8.60;99.90
32502;DHT22;18952;52.516;13.460;2022-09-28T06:20:32;8.80;99.90
32502;DHT22;18952;52.516;13.460;2022-09-28T06:22:59;8.80;99.90
32502;DHT22;18952;52.516;13.460;2022-09-28T06:25:26;8.90;99.90
32502;DHT22;18952;52.516;13.460;2022-09-28T06:28:05;8.90;99.90
32502;DHT22;18952;52.516;13.460;2022-09-28T06:30:33;9.00;99.90
32502;DHT22;18952;52.516;13.460;2022-09-28T06:33:01;8.90;99.90
32502;DHT22;18952;52.516;13.460;2022-09-28T06:35:29;8.80;99.90
32502;DHT22;18952;52.516;13.460;2022-09-28T06:37:57;8.80;99.90
32502;DHT22;18952;52.516;13.460;2022-09-28T06:40:25;8.70;99.90
32502;DHT22;18952;52.516;13.460;2022-09-28T06:43:06;8.70;99.90
32502;DHT22;18952;52.516;13.460;2022-09-28T06:45:35;8.80;99.90
32502;DHT22;18952;52.516;13.460;2022-09-28T06:48:03;8.70;99.90
32502;DHT22;18952;52.516;13.460;2022-09-28T06:50:32;8.70;99.90
32502;DHT22;18952;52.516;13.460;2022-09-28T06:53:00;8.70;99.90
32502;DHT22;18952;52.516;13.460;2022-09-28T06:55:27;8.70;99.90
32502;DHT22;18952;52.516;13.460;2022-09-28T06:58:02;8.70;99.90
32502;DHT22;18952;52.516;13.460;2022-09-28T07:00:34;8.80;99.90
32502;DHT22;18952;52.516;13.460;2022-09-28T07:03:04;8.70;99.90
32502;DHT22;18952;52.516;13.460;2022-09-28T07:05:33;8.80;99.90
32502;DHT22;18952;52.516;13.460;2022-09-28T07:08:00;8.80;99.90
32502;DHT22;18952;52.516;13.460;2022-09-28T07:10:29;8.80;99.90
32502;DHT22;18952;52.516;13.460;2022-09-28T07:12:58;8.80;99.90
32502;DHT22;18952;52.516;13.460;2022-09-28T07:15:25;8.80;99.90
32502;DHT22;18952;52.516;13.460;2022-09-28T07:17:59;8.90;99.90
32502;DHT22;18952;52.516;13.460;2022-09-28T07:20:30;8.90;99.90
32502;DHT22;18952;52.516;13.460;2022-09-28T07:22:59;8.90;99.90
32502;DHT22;18952;52.516;13.460;2022-09-28T07:25:41;8.90;99.90
32502;DHT22;18952;52.516;13.460;2022-09-28T07:28:08;8.90;99.90
32502;DHT22;18952;52.516;13.460;2022-09-28T07:30:35;9.00;99.90
32502;DHT22;18952;52.516;13.460;2022-09-28T07:33:03;9.00;99.90
32502;DHT22;18952;52.516;13.460;2022-09-28T07:35:31;9.10;99.90
32502;DHT22;18952;52.516;13.460;2022-09-28T07:37:58;9.10;99.90
32502;DHT22;18952;52.516;13.460;2022-09-28T07:40:26;9.10;99.90
32502;DHT22;18952;52.516;13.460;2022-09-28T07:42:53;9.20;99.90
32502;DHT22;18952;52.516;13.460;2022-09-28T07:45:20;9.20;99.90
32502;DHT22;18952;52.516;13.460;2022-09-28T07:47:46;9.20;99.90
32502;DHT22;18952;52.516;13.460;2022-09-28T07:50:13;9.20;99.90
32502;DHT22;18952;52.516;13.460;2022-09-28T07:52:40;9.30;99.90
32502;DHT22;18952;52.516;13.460;2022-09-28T07:55:07;9.30;99.90
32502;DHT22;18952;52.516;13.460;2022-09-28T07:57:34;9.30;99.90
32502;DHT22;18952;52.516;13.460;2022-09-28T08:00:01;9.40;99.90
32502;DHT22;18952;52.516;13.460;2022-09-28T08:02:28;9.50;99.90
32502;DHT22;18952;52.516;13.460;2022-09-28T08:04:54;9.60;99.90
32502;DHT22;18952;52.516;13.460;2022-09-28T08:07:21;9.80;99.90
32502;DHT22;18952;52.516;13.460;2022-09-28T08:09:49;9.90;99.90
32502;DHT22;18952;52.516;13.460;2022-09-28T08:12:16;10.00;99.90
32502;DHT22;18952;52.516;13.460;2022-09-28T08:14:43;10.10;99.90
32502;DHT22;18952;52.516;13.460;2022-09-28T08:17:10;10.20;99.90
32502;DHT22;18952;52.516;13.460;2022-09-28T08:19:37;10.20;99.90
32502;DHT22;18952;52.516;13.460;2022-09-28T08:22:06;10.20;99.90
32502;DHT22;18952;52.516;13.460;2022-09-28T08:24:32;10.30;99.90
32502;DHT22;18952;52.516;13.460;2022-09-28T08:26:59;10.30;99.90
32502;DHT22;18952;52.516;13.460;2022-09-28T08:29:26;10.40;99.90
32502;DHT22;18952;52.516;13.460;2022-09-28T08:31:52;10.50;99.90
32502;DHT22;18952;52.516;13.460;2022-09-28T08:34:25;10.50;99.90
32502;DHT22;18952;52.516;13.460;2022-09-28T08:36:52;10.60;99.90
32502;DHT22;18952;52.516;13.460;2022-09-28T08:39:21;10.60;99.90
32502;DHT22;18952;52.516;13.460;2022-09-28T08:44:38;10.80;99.90
32502;DHT22;18952;52.516;13.460;2022-09-28T08:47:14;10.80;99.90
32502;DHT22;18952;52.516;13.460;2022-09-28T08:49:46;10.90;99.90
32502;DHT22;18952;52.516;13.460;2022-09-28T08:52:23;11.00;99.90
32502;DHT22;18952;52.516;13.460;2022-09-28T08:55:37;11.10;99.90
32502;DHT22;18952;52.516;13.460;2022-09-28T08:57:49;11.10;99.90
32502;DHT22;18952;52.516;13.460;2022-09-28T09:00:32;11.10;99.90
32502;DHT22;18952;52.516;13.460;2022-09-28T09:03:11;11.10;99.90
32502;DHT22;18952;52.516;13.460;2022-09-28T09:08:57;11.10;99.90
32502;DHT22;18952;52.516;13.460;2022-09-28T09:11:47;11.10;99.90
32502;DHT22;18952;52.516;13.460;2022-09-28T09:14:31;11.30;99.90
32502;DHT22;18952;52.516;13.460;2022-09-28T09:19:54;11.50;99.90
32502;DHT22;18952;52.516;13.460;2022-09-28T09:22:40;11.50;99.90
32502;DHT22;18952;52.516;13.460;2022-09-28T09:25:23;11.60;99.90
32502;DHT22;18952;52.516;13.460;2022-09-28T09:28:10;11.70;99.90
32502;DHT22;18952;52.516;13.460;2022-09-28T09:39:35;12.00;99.90
32502;DHT22;18952;52.516;13.460;2022-09-28T09:49:55;12.40;99.90
32502;DHT22;18952;52.516;13.460;2022-09-28T09:52:48;12.50;99.90
32502;DHT22;18952;52.516;13.460;2022-09-28T09:55:28;12.60;99.90
32502;DHT22;18952;52.516;13.460;2022-09-28T10:00:50;12.90;99.90
32502;DHT22;18952;52.516;13.460;2022-09-28T10:03:32;13.00;99.90
32502;DHT22;18952;52.516;13.460;2022-09-28T10:06:07;13.10;99.90
32502;DHT22;18952;52.516;13.460;2022-09-28T10:08:40;13.20;99.90
32502;DHT22;18952;52.516;13.460;2022-09-28T10:11:14;13.40;99.90
32502;DHT22;18952;52.516;13.460;2022-09-28T10:13:42;13.40;99.90
32502;DHT22;18952;52.516;13.460;2022-09-28T10:16:09;13.40;99.90
32502;DHT22;18952;52.516;13.460;2022-09-28T10:18:36;13.40;99.90
32502;DHT22;18952;52.516;13.460;2022-09-28T10:21:03;13.40;99.90
32502;DHT22;18952;52.516;13.460;2022-09-28T10:23:33;13.30;99.90
32502;DHT22;18952;52.516;13.460;2022-09-28T10:26:04;13.30;99.90
32502;DHT22;18952;52.516;13.460;2022-09-28T10:28:53;13.10;99.90
32502;DHT22;18952;52.516;13.460;2022-09-28T10:31:46;12.80;99.90
32502;DHT22;18952;52.516;13.460;2022-09-28T10:34:18;12.60;99.90
32502;DHT22;18952;52.516;13.460;2022-09-28T10:36:48;12.50;99.90
32502;DHT22;18952;52.516;13.460;2022-09-28T10:39:37;12.40;99.90
32502;DHT22;18952;52.516;13.460;2022-09-28T10:42:11;12.30;99.90
32502;DHT22;18952;52.516;13.460;2022-09-28T10:44:54;12.30;99.90
32502;DHT22;18952;52.516;13.460;2022-09-28T10:47:24;12.30;99.90
32502;DHT22;18952;52.516;13.460;2022-09-28T10:49:52;12.20;99.90
32502;DHT22;18952;52.516;13.460;2022-09-28T10:52:40;12.10;99.90
32502;DHT22;18952;52.516;13.460;2022-09-28T10:57:46;12.30;99.90
32502;DHT22;18952;52.516;13.460;2022-09-28T11:00:40;12.40;99.90
32502;DHT22;18952;52.516;13.460;2022-09-28T11:03:19;12.60;99.90
32502;DHT22;18952;52.516;13.460;2022-09-28T11:06:02;12.80;99.90
32502;DHT22;18952;52.516;13.460;2022-09-28T11:08:38;12.90;99.90
32502;DHT22;18952;52.516;13.460;2022-09-28T11:11:11;13.00;99.90
32502;DHT22;18952;52.516;13.460;2022-09-28T11:13:41;13.00;99.90
32502;DHT22;18952;52.516;13.460;2022-09-28T11:16:31;13.00;99.90
32502;DHT22;18952;52.516;13.460;2022-09-28T11:19:48;12.90;99.90
32502;DHT22;18952;52.516;13.460;2022-09-28T11:21:50;12.80;99.90
32502;DHT22;18952;52.516;13.460;2022-09-28T11:24:21;12.60;99.90
32502;DHT22;18952;52.516;13.460;2022-09-28T11:26:51;12.40;99.90
32502;DHT22;18952;52.516;13.460;2022-09-28T11:29:30;12.40;99.90
32502;DHT22;18952;52.516;13.460;2022-09-28T11:32:01;12.20;99.90
32502;DHT22;18952;52.516;13.460;2022-09-28T11:34:43;12.10;99.90
32502;DHT22;18952;52.516;13.460;2022-09-28T11:37:41;11.90;99.90
32502;DHT22;18952;52.516;13.460;2022-09-28T11:40:23;11.80;99.90
32502;DHT22;18952;52.516;13.460;2022-09-28T11:43:03;11.80;99.90
32502;DHT22;18952;52.516;13.460;2022-09-28T11:45:41;11.70;99.90
32502;DHT22;18952;52.516;13.460;2022-09-28T11:48:14;11.80;99.90
32502;DHT22;18952;52.516;13.460;2022-09-28T11:53:37;11.80;99.90
32502;DHT22;18952;52.516;13.460;2022-09-28T11:58:48;11.70;99.90
32502;DHT22;18952;52.516;13.460;2022-09-28T12:03:54;11.60;99.90
32502;DHT22;18952;52.516;13.460;2022-09-28T12:06:31;11.50;99.90
32502;DHT22;18952;52.516;13.460;2022-09-28T12:09:05;11.40;99.90
32502;DHT22;18952;52.516;13.460;2022-09-28T12:11:39;11.40;99.90
32502;DHT22;18952;52.516;13.460;2022-09-28T12:14:25;11.50;99.90
32502;DHT22;18952;52.516;13.460;2022-09-28T12:16:58;11.50;99.90
32502;DHT22;18952;52.516;13.460;2022-09-28T12:22:11;11.50;99.90
32502;DHT22;18952;52.516;13.460;2022-09-28T12:24:43;11.40;99.90
32502;DHT22;18952;52.516;13.460;2022-09-28T12:29:56;11.50;99.90
32502;DHT22;18952;52.516;13.460;2022-09-28T12:32:48;11.50;99.90
32502;DHT22;18952;52.516;13.460;2022-09-28T12:38:54;11.70;99.90
32502;DHT22;18952;52.516;13.460;2022-09-28T12:47:45;11.80;99.90
32502;DHT22;18952;52.516;13.460;2022-09-28T12:53:46;12.00;99.90
32502;DHT22;18952;52.516;13.460;2022-09-28T12:56:40;12.00;99.90
32502;DHT22;18952;52.516;13.460;2022-09-28T13:09:52;11.90;99.90
32502;DHT22;18952;52.516;13.460;2022-09-28T13:17:39;12.10;99.90
32502;DHT22;18952;52.516;13.460;2022-09-28T13:25:31;12.20;99.90
32502;DHT22;18952;52.516;13.460;2022-09-28T13:28:01;12.10;99.90
32502;DHT22;18952;52.516;13.460;2022-09-28T13:30:30;12.10;99.90
32502;DHT22;18952;52.516;13.460;2022-09-28T13:33:01;12.10;99.90
32502;DHT22;18952;52.516;13.460;2022-09-28T13:35:28;12.20;99.90
32502;DHT22;18952;52.516;13.460;2022-09-28T13:52:04;12.60;99.90
32502;DHT22;18952;52.516;13.460;2022-09-28T13:57:54;12.40;99.90
32502;DHT22;18952;52.516;13.460;2022-09-28T14:00:37;12.50;99.90
32502;DHT22;18952;52.516;13.460;2022-09-28T14:06:06;12.50;99.90
32502;DHT22;18952;52.516;13.460;2022-09-28T14:08:44;12.40;99.90
32502;DHT22;18952;52.516;13.460;2022-09-28T14:16:36;12.50;99.90
32502;DHT22;18952;52.516;13.460;2022-09-28T14:19:23;12.50;99.90
32502;DHT22;18952;52.516;13.460;2022-09-28T14:32:39;12.40;99.90
32502;DHT22;18952;52.516;13.460;2022-09-28T14:35:19;12.40;99.90
32502;DHT22;18952;52.516;13.460;2022-09-28T14:37:50;12.40;99.90
32502;DHT22;18952;52.516;13.460;2022-09-28T14:40:28;12.60;99.90
32502;DHT22;18952;52.516;13.460;2022-09-28T14:48:57;12.80;99.90
32502;DHT22;18952;52.516;13.460;2022-09-28T14:53:57;13.00;99.90
32502;DHT22;18952;52.516;13.460;2022-09-28T14:56:25;13.00;99.90
32502;DHT22;18952;52.516;13.460;2022-09-28T14:59:03;13.10;99.90
32502;DHT22;18952;52.516;13.460;2022-09-28T15:01:32;12.90;99.90
32502;DHT22;18952;52.516;13.460;2022-09-28T15:04:03;12.90;99.90
32502;DHT22;18952;52.516;13.460;2022-09-28T15:06:47;12.80;99.90
32502;DHT22;18952;52.516;13.460;2022-09-28T15:09:33;12.80;99.90
32502;DHT22;18952;52.516;13.460;2022-09-28T15:12:02;12.80;99.90
32502;DHT22;18952;52.516;13.460;2022-09-28T15:14:31;12.80;99.90
32502;DHT22;18952;52.516;13.460;2022-09-28T15:17:07;12.80;99.90
32502;DHT22;18952;52.516;13.460;2022-09-28T15:19:37;12.80;99.90
32502;DHT22;18952;52.516;13.460;2022-09-28T15:22:16;12.80;99.90
32502;DHT22;18952;52.516;13.460;2022-09-28T15:24:55;12.70;99.90
32502;DHT22;18952;52.516;13.460;2022-09-28T15:27:35;12.60;99.90
32502;DHT22;18952;52.516;13.460;2022-09-28T15:30:26;12.50;99.90
32502;DHT22;18952;52.516;13.460;2022-09-28T15:32:54;12.40;99.90
32502;DHT22;18952;52.516;13.460;2022-09-28T15:35:24;12.30;99.90
32502;DHT22;18952;52.516;13.460;2022-09-28T15:37:53;12.20;99.90
32502;DHT22;18952;52.516;13.460;2022-09-28T15:42:49;12.10;99.90
32502;DHT22;18952;52.516;13.460;2022-09-28T15:45:24;12.10;99.90
32502;DHT22;18952;52.516;13.460;2022-09-28T15:47:54;12.00;99.90
32502;DHT22;18952;52.516;13.460;2022-09-28T15:50:28;11.90;99.90
32502;DHT22;18952;52.516;13.460;2022-09-28T15:52:56;11.90;99.90
32502;DHT22;18952;52.516;13.460;2022-09-28T15:55:33;11.90;99.90
32502;DHT22;18952;52.516;13.460;2022-09-28T15:58:19;11.90;99.90
32502;DHT22;18952;52.516;13.460;2022-09-28T16:00:48;11.80;99.90
32502;DHT22;18952;52.516;13.460;2022-09-28T16:03:29;11.70;99.90
32502;DHT22;18952;52.516;13.460;2022-09-28T16:13:55;11.50;99.90
32502;DHT22;18952;52.516;13.460;2022-09-28T16:16:27;11.40;99.90
32502;DHT22;18952;52.516;13.460;2022-09-28T16:18:56;11.30;99.90
32502;DHT22;18952;52.516;13.460;2022-09-28T16:21:29;11.30;99.90
32502;DHT22;18952;52.516;13.460;2022-09-28T16:23:58;11.20;99.90
32502;DHT22;18952;52.516;13.460;2022-09-28T16:26:34;11.10;99.90
32502;DHT22;18952;52.516;13.460;2022-09-28T16:29:05;11.00;99.90
32502;DHT22;18952;52.516;13.460;2022-09-28T16:31:32;10.80;99.90
32502;DHT22;18952;52.516;13.460;2022-09-28T16:34:16;10.60;99.90
32502;DHT22;18952;52.516;13.460;2022-09-28T16:36:45;10.50;99.90
32502;DHT22;18952;52.516;13.460;2022-09-28T16:39:13;10.30;99.90
32502;DHT22;18952;52.516;13.460;2022-09-28T16:41:52;10.20;99.90
32502;DHT22;18952;52.516;13.460;2022-09-28T16:44:25;10.20;99.90
32502;DHT22;18952;52.516;13.460;2022-09-28T16:46:56;10.10;99.90
32502;DHT22;18952;52.516;13.460;2022-09-28T16:49:24;10.00;99.90
32502;DHT22;18952;52.516;13.460;2022-09-28T16:51:51;10.00;99.90
32502;DHT22;18952;52.516;13.460;2022-09-28T16:54:23;10.00;99.90
32502;DHT22;18952;52.516;13.460;2022-09-28T16:56:50;9.90;99.90
32502;DHT22;18952;52.516;13.460;2022-09-28T16:59:17;9.90;99.90
32502;DHT22;18952;52.516;13.460;2022-09-28T17:01:44;9.80;99.90
32502;DHT22;18952;52.516;13.460;2022-09-28T17:04:11;9.80;99.90
32502;DHT22;18952;52.516;13.460;2022-09-28T17:06:38;9.80;99.90
32502;DHT22;18952;52.516;13.460;2022-09-28T17:09:04;9.70;99.90
32502;DHT22;18952;52.516;13.460;2022-09-28T17:11:32;9.60;99.90
32502;DHT22;18952;52.516;13.460;2022-09-28T17:13:59;9.60;99.90
32502;DHT22;18952;52.516;13.460;2022-09-28T17:16:28;9.50;99.90
32502;DHT22;18952;52.516;13.460;2022-09-28T17:19:20;9.60;99.90
32502;DHT22;18952;52.516;13.460;2022-09-28T17:21:47;9.50;99.90
32502;DHT22;18952;52.516;13.460;2022-09-28T17:24:14;9.50;99.90
32502;DHT22;18952;52.516;13.460;2022-09-28T17:26:41;9.50;99.90
32502;DHT22;18952;52.516;13.460;2022-09-28T17:29:12;9.50;99.90
32502;DHT22;18952;52.516;13.460;2022-09-28T17:31:43;9.40;99.90
32502;DHT22;18952;52.516;13.460;2022-09-28T17:34:11;9.30;99.90
32502;DHT22;18952;52.516;13.460;2022-09-28T17:36:40;9.30;99.90
32502;DHT22;18952;52.516;13.460;2022-09-28T17:39:16;9.40;99.90
32502;DHT22;18952;52.516;13.460;2022-09-28T17:41:43;9.40;99.90
32502;DHT22;18952;52.516;13.460;2022-09-28T17:44:10;9.30;99.90
32502;DHT22;18952;52.516;13.460;2022-09-28T17:46:41;9.30;99.90
32502;DHT22;18952;52.516;13.460;2022-09-28T17:49:10;9.30;99.90
32502;DHT22;18952;52.516;13.460;2022-09-28T17:51:37;9.30;99.90
32502;DHT22;18952;52.516;13.460;2022-09-28T17:54:05;9.30;99.90
32502;DHT22;18952;52.516;13.460;2022-09-28T17:56:33;9.30;99.90
32502;DHT22;18952;52.516;13.460;2022-09-28T17:59:02;9.30;99.90
32502;DHT22;18952;52.516;13.460;2022-09-28T18:01:30;9.30;99.90
32502;DHT22;18952;52.516;13.460;2022-09-28T18:03:59;9.30;99.90
32502;DHT22;18952;52.516;13.460;2022-09-28T18:06:25;9.30;99.90
32502;DHT22;18952;52.516;13.460;2022-09-28T18:08:52;9.40;99.90
32502;DHT22;18952;52.516;13.460;2022-09-28T18:11:19;9.30;99.90
32502;DHT22;18952;52.516;13.460;2022-09-28T18:13:45;9.30;99.90
32502;DHT22;18952;52.516;13.460;2022-09-28T18:16:13;9.30;99.90
32502;DHT22;18952;52.516;13.460;2022-09-28T18:18:40;9.20;99.90
32502;DHT22;18952;52.516;13.460;2022-09-28T18:21:07;9.30;99.90
32502;DHT22;18952;52.516;13.460;2022-09-28T18:23:35;9.30;99.90
32502;DHT22;18952;52.516;13.460;2022-09-28T18:26:03;9.30;99.90
32502;DHT22;18952;52.516;13.460;2022-09-28T18:28:29;9.30;99.90
32502;DHT22;18952;52.516;13.460;2022-09-28T18:30:56;9.20;99.90
32502;DHT22;18952;52.516;13.460;2022-09-28T18:33:23;9.30;99.90
32502;DHT22;18952;52.516;13.460;2022-09-28T18:35:52;9.20;99.90
32502;DHT22;18952;52.516;13.460;2022-09-28T18:38:19;9.20;99.90
32502;DHT22;18952;52.516;13.460;2022-09-28T18:40:46;9.20;99.90
32502;DHT22;18952;52.516;13.460;2022-09-28T18:43:14;9.20;99.90
32502;DHT22;18952;52.516;13.460;2022-09-28T18:45:41;9.20;99.90
32502;DHT22;18952;52.516;13.460;2022-09-28T18:48:07;9.30;99.90
32502;DHT22;18952;52.516;13.460;2022-09-28T18:50:34;9.30;99.90
32502;DHT22;18952;52.516;13.460;2022-09-28T18:53:01;9.30;99.90
32502;DHT22;18952;52.516;13.460;2022-09-28T18:55:28;9.30;99.90